Time;durP1;ratioP1;P1;durP2;ratioP2;P2;SDS_P1;SDS_P2;PMS_P1;PMS_P2;Temp;Humidity;BMP_temperature;BMP_pressure;BME280_temperature;BME280_humidity;BME280_pressure;Samples;Min_cycle;Max_cycle;Signal;HPM_P1;HPM_P2
2021/09/21 00:01:06;;;;;;;13.00;4.93;;;;;;;;;;5017077;28;20057;-72
2021/09/21 00:03:33;;;;;;;12.70;4.30;;;;;;;;;;5015948;28;20401;-71
2021/09/21 00:05:59;;;;;;;9.70;4.35;;;;;;;;;;5016957;28;20014;-68
2021/09/21 00:08:28;;;;;;;11.68;4.82;;;;;;;;;;5016226;28;20096;-73
2021/09/21 00:10:55;;;;;;;13.90;6.53;;;;;;;;;;5017004;28;20025;-71
2021/09/21 00:13:21;;;;;;;14.10;5.47;;;;;;;;;;5017470;28;20026;-70
2021/09/21 00:15:47;;;;;;;9.45;4.43;;;;;;;;;;5016469;28;20037;-72
2021/09/21 00:18:13;;;;;;;10.93;4.72;;;;;;;;;;5016754;28;20038;-73
2021/09/21 00:20:39;;;;;;;8.27;4.55;;;;;;;;;;5017060;28;20026;-70
2021/09/21 00:23:05;;;;;;;17.25;4.35;;;;;;;;;;5015304;28;20030;-72
2021/09/21 00:25:31;;;;;;;14.55;4.55;;;;;;;;;;5017018;28;20041;-73
2021/09/21 00:27:58;;;;;;;10.88;5.65;;;;;;;;;;5016667;28;20049;-71
2021/09/21 00:30:24;;;;;;;12.23;4.45;;;;;;;;;;5016614;28;20033;-72
2021/09/21 00:33:01;;;;;;;14.05;4.80;;;;;;;;;;5016551;28;20022;-72
2021/09/21 00:35:27;;;;;;;12.77;4.63;;;;;;;;;;5016438;28;20551;-72
2021/09/21 00:37:53;;;;;;;14.95;4.63;;;;;;;;;;5016180;28;20033;-73
2021/09/21 00:40:20;;;;;;;14.95;5.22;;;;;;;;;;5016233;28;20026;-69
2021/09/21 00:42:46;;;;;;;23.77;8.05;;;;;;;;;;5016594;28;20022;-71
2021/09/21 00:45:18;;;;;;;14.68;4.65;;;;;;;;;;5016662;28;20022;-72
2021/09/21 00:47:44;;;;;;;16.10;4.60;;;;;;;;;;5017094;28;20033;-71
2021/09/21 00:50:10;;;;;;;10.77;5.10;;;;;;;;;;5016118;28;20658;-70
2021/09/21 00:52:36;;;;;;;11.77;4.63;;;;;;;;;;5016550;28;20022;-72
2021/09/21 00:55:03;;;;;;;19.63;5.00;;;;;;;;;;5016336;28;20026;-72
2021/09/21 00:57:31;;;;;;;18.67;5.20;;;;;;;;;;5016085;28;20028;-72
2021/09/21 00:59:57;;;;;;;11.40;4.30;;;;;;;;;;5015984;28;20048;-73
2021/09/21 01:02:23;;;;;;;17.75;5.30;;;;;;;;;;5016128;28;20026;-73
2021/09/21 01:04:50;;;;;;;11.30;4.25;;;;;;;;;;5016562;28;20041;-72
2021/09/21 01:07:16;;;;;;;11.90;4.13;;;;;;;;;;5015771;28;20026;-65
2021/09/21 01:09:43;;;;;;;16.77;4.70;;;;;;;;;;5015917;28;20023;-72
2021/09/21 01:12:09;;;;;;;13.90;4.90;;;;;;;;;;5016231;28;20029;-71
2021/09/21 01:14:35;;;;;;;12.15;5.10;;;;;;;;;;5015262;28;20029;-67
2021/09/21 01:17:01;;;;;;;9.77;4.40;;;;;;;;;;5015247;28;20034;-73
2021/09/21 01:19:27;;;;;;;14.32;4.30;;;;;;;;;;5021025;28;20034;-72
2021/09/21 01:21:54;;;;;;;11.77;4.18;;;;;;;;;;5022205;28;20033;-70
2021/09/21 01:24:21;;;;;;;13.07;4.20;;;;;;;;;;5021169;28;20080;-70
2021/09/21 01:26:47;;;;;;;13.60;4.07;;;;;;;;;;5022485;28;20122;-73
2021/09/21 01:29:13;;;;;;;13.43;4.10;;;;;;;;;;5022906;28;20037;-69
2021/09/21 01:31:40;;;;;;;14.32;5.10;;;;;;;;;;5022702;28;20026;-72
2021/09/21 01:34:06;;;;;;;12.75;3.75;;;;;;;;;;5022890;28;20032;-72
2021/09/21 01:36:33;;;;;;;15.27;5.10;;;;;;;;;;5021498;28;20396;-71
2021/09/21 01:38:59;;;;;;;11.63;4.00;;;;;;;;;;5022069;28;20053;-70
2021/09/21 01:41:25;;;;;;;16.20;6.13;;;;;;;;;;5022071;28;20036;-74
2021/09/21 01:43:51;;;;;;;15.60;5.65;;;;;;;;;;5021711;28;20392;-70
2021/09/21 01:46:20;;;;;;;15.13;4.70;;;;;;;;;;5020840;28;20099;-73
2021/09/21 01:48:46;;;;;;;11.10;4.60;;;;;;;;;;5022346;28;20022;-72
2021/09/21 01:51:18;;;;;;;12.23;4.25;;;;;;;;;;5022098;28;20076;-68
2021/09/21 01:54:09;;;;;;;17.75;4.75;;;;;;;;;;5022537;28;20029;-70
2021/09/21 01:59:20;;;;;;;11.23;4.72;;;;;;;;;;5022157;28;20053;-72
2021/09/21 02:01:46;;;;;;;10.85;4.63;;;;;;;;;;5022849;28;20113;-69
2021/09/21 02:04:12;;;;;;;14.70;4.78;;;;;;;;;;5022216;28;20038;-70
2021/09/21 02:06:40;;;;;;;11.63;4.97;;;;;;;;;;5022380;28;20025;-71
2021/09/21 02:09:08;;;;;;;11.43;4.60;;;;;;;;;;5022492;28;20029;-71
2021/09/21 02:11:34;;;;;;;17.17;4.90;;;;;;;;;;5022205;28;20097;-69
2021/09/21 02:14:00;;;;;;;13.48;4.93;;;;;;;;;;5021549;28;20030;-72
2021/09/21 02:16:30;;;;;;;16.45;5.10;;;;;;;;;;5022258;28;20026;-71
2021/09/21 02:18:57;;;;;;;13.30;4.80;;;;;;;;;;5022153;28;20033;-71
2021/09/21 02:21:28;;;;;;;11.65;4.15;;;;;;;;;;5022097;28;20030;-70
2021/09/21 02:23:56;;;;;;;13.88;5.28;;;;;;;;;;5021827;28;20022;-72
2021/09/21 02:26:22;;;;;;;12.32;6.03;;;;;;;;;;5020556;28;20036;-72
2021/09/21 02:28:48;;;;;;;12.10;4.07;;;;;;;;;;5021897;28;20041;-71
2021/09/21 02:31:14;;;;;;;17.73;5.22;;;;;;;;;;5017658;28;20025;-69
2021/09/21 02:33:40;;;;;;;13.68;5.35;;;;;;;;;;5018614;28;20026;-72
2021/09/21 02:36:06;;;;;;;24.17;5.90;;;;;;;;;;5018808;28;20060;-72
2021/09/21 02:38:33;;;;;;;11.43;4.18;;;;;;;;;;5018513;28;20026;-65
2021/09/21 02:40:59;;;;;;;16.23;4.90;;;;;;;;;;5018739;28;20030;-72
2021/09/21 02:43:26;;;;;;;12.65;4.65;;;;;;;;;;5018958;28;20026;-71
2021/09/21 02:45:52;;;;;;;12.88;4.35;;;;;;;;;;5018852;28;20029;-69
2021/09/21 02:48:18;;;;;;;15.57;4.70;;;;;;;;;;5018973;28;20046;-72
2021/09/21 02:50:45;;;;;;;11.18;5.07;;;;;;;;;;5018877;28;20033;-70
2021/09/21 02:53:11;;;;;;;7.78;4.30;;;;;;;;;;5018105;28;20034;-71
2021/09/21 02:55:37;;;;;;;10.57;4.53;;;;;;;;;;5018230;28;20104;-73
2021/09/21 02:58:04;;;;;;;11.75;4.30;;;;;;;;;;5018492;28;20036;-72
2021/09/21 03:00:30;;;;;;;8.15;4.00;;;;;;;;;;5016599;28;20042;-71
2021/09/21 03:03:00;;;;;;;9.95;4.75;;;;;;;;;;5017654;28;20033;-72
2021/09/21 03:05:28;;;;;;;12.93;5.35;;;;;;;;;;5018056;28;20041;-72
2021/09/21 03:07:59;;;;;;;18.02;5.80;;;;;;;;;;5018030;28;20029;-72
2021/09/21 03:13:22;;;;;;;12.73;4.75;;;;;;;;;;5018494;28;20044;-73
2021/09/21 03:18:34;;;;;;;18.67;6.45;;;;;;;;;;5017787;28;20040;-72
2021/09/21 03:21:00;;;;;;;18.52;5.90;;;;;;;;;;5018592;28;20145;-71
2021/09/21 03:23:26;;;;;;;17.27;6.25;;;;;;;;;;5017301;28;20026;-72
2021/09/21 03:25:52;;;;;;;25.30;6.47;;;;;;;;;;5017994;28;20026;-73
2021/09/21 03:28:18;;;;;;;19.38;6.45;;;;;;;;;;5018064;28;20381;-70
2021/09/21 03:30:44;;;;;;;32.60;7.28;;;;;;;;;;5017331;28;20029;-71
2021/09/21 03:33:10;;;;;;;22.15;6.35;;;;;;;;;;5017330;28;20030;-72
2021/09/21 03:35:36;;;;;;;24.90;6.75;;;;;;;;;;5018000;28;20029;-70
2021/09/21 03:38:03;;;;;;;26.30;7.80;;;;;;;;;;5017681;28;20026;-70
2021/09/21 03:40:29;;;;;;;38.10;6.95;;;;;;;;;;5017619;28;20034;-74
2021/09/21 03:42:55;;;;;;;30.15;6.15;;;;;;;;;;5017473;28;20032;-70
2021/09/21 03:45:21;;;;;;;28.23;8.15;;;;;;;;;;5016829;28;20117;-72
2021/09/21 03:47:48;;;;;;;22.33;9.63;;;;;;;;;;5017699;28;20080;-73
2021/09/21 03:50:14;;;;;;;22.05;7.57;;;;;;;;;;5017130;28;20022;-71
2021/09/21 03:52:40;;;;;;;26.60;9.00;;;;;;;;;;5016685;28;20029;-70
2021/09/21 03:55:06;;;;;;;22.23;6.97;;;;;;;;;;5017705;28;20361;-72
2021/09/21 03:57:33;;;;;;;16.58;5.93;;;;;;;;;;5017123;28;20033;-70
2021/09/21 03:59:59;;;;;;;20.52;6.55;;;;;;;;;;5016876;28;20137;-72
2021/09/21 04:02:25;;;;;;;21.65;6.80;;;;;;;;;;5016296;28;20026;-74
2021/09/21 04:04:51;;;;;;;18.50;6.60;;;;;;;;;;5016521;28;20101;-67
2021/09/21 04:07:17;;;;;;;19.55;6.18;;;;;;;;;;5016170;28;20504;-74
2021/09/21 04:09:43;;;;;;;15.93;5.80;;;;;;;;;;5017159;28;20032;-73
2021/09/21 04:12:09;;;;;;;18.38;7.18;;;;;;;;;;5018130;28;20022;-72
2021/09/21 04:14:35;;;;;;;18.15;5.47;;;;;;;;;;5017184;28;20036;-70
2021/09/21 04:17:01;;;;;;;14.57;5.57;;;;;;;;;;5016965;28;20026;-72
2021/09/21 04:19:28;;;;;;;20.65;5.80;;;;;;;;;;5015058;28;20456;-70
2021/09/21 04:21:54;;;;;;;16.02;5.53;;;;;;;;;;5016535;28;20034;-71
2021/09/21 04:24:20;;;;;;;14.73;5.45;;;;;;;;;;5016561;28;20033;-73
2021/09/21 04:26:46;;;;;;;12.02;4.95;;;;;;;;;;5016476;28;20105;-67
2021/09/21 04:29:12;;;;;;;14.48;5.13;;;;;;;;;;5016085;28;20448;-72
2021/09/21 04:31:42;;;;;;;14.55;5.18;;;;;;;;;;5016125;28;20018;-72
2021/09/21 04:34:08;;;;;;;10.77;5.05;;;;;;;;;;5016385;28;20034;-70
2021/09/21 04:36:34;;;;;;;14.85;4.97;;;;;;;;;;5016468;28;20034;-67
2021/09/21 04:39:00;;;;;;;15.25;5.88;;;;;;;;;;5016019;28;20029;-72
2021/09/21 04:41:27;;;;;;;16.55;5.18;;;;;;;;;;5016078;28;20022;-71
2021/09/21 04:43:53;;;;;;;15.30;5.03;;;;;;;;;;5015883;28;20025;-71
2021/09/21 04:46:19;;;;;;;10.88;4.43;;;;;;;;;;5016320;28;20030;-73
2021/09/21 04:48:46;;;;;;;15.75;5.30;;;;;;;;;;5015991;28;20053;-72
2021/09/21 04:51:12;;;;;;;16.15;6.22;;;;;;;;;;5016163;28;20117;-68
2021/09/21 04:53:38;;;;;;;14.55;5.65;;;;;;;;;;5015435;28;20033;-71
2021/09/21 04:56:07;;;;;;;12.75;6.38;;;;;;;;;;5016315;28;20028;-71
2021/09/21 04:58:33;;;;;;;13.27;5.78;;;;;;;;;;5016490;28;20029;-73
2021/09/21 05:00:59;;;;;;;11.63;5.60;;;;;;;;;;5015209;28;20069;-72
2021/09/21 05:03:25;;;;;;;10.60;6.00;;;;;;;;;;5015811;28;20033;-73
2021/09/21 05:05:51;;;;;;;11.82;5.78;;;;;;;;;;5015880;28;20097;-65
2021/09/21 05:08:17;;;;;;;12.60;5.57;;;;;;;;;;5015558;28;20029;-72
2021/09/21 05:10:43;;;;;;;14.27;5.43;;;;;;;;;;5015915;28;20563;-73
2021/09/21 05:13:09;;;;;;;11.80;5.07;;;;;;;;;;5015778;28;20022;-68
2021/09/21 05:15:36;;;;;;;14.27;5.20;;;;;;;;;;5015451;28;20465;-72
2021/09/21 05:18:02;;;;;;;15.57;5.60;;;;;;;;;;5015598;28;20022;-72
2021/09/21 05:20:28;;;;;;;19.05;5.80;;;;;;;;;;5015996;28;20029;-67
2021/09/21 05:22:54;;;;;;;15.07;5.05;;;;;;;;;;5015708;28;20049;-72
2021/09/21 05:25:21;;;;;;;14.20;5.03;;;;;;;;;;5015656;28;20070;-72
2021/09/21 05:27:47;;;;;;;9.95;4.90;;;;;;;;;;5015714;28;20018;-71
2021/09/21 05:30:14;;;;;;;14.75;4.93;;;;;;;;;;5015542;28;20113;-73
2021/09/21 05:32:40;;;;;;;9.70;4.95;;;;;;;;;;5016614;28;20018;-72
2021/09/21 05:35:07;;;;;;;11.85;5.22;;;;;;;;;;5015738;28;20033;-66
2021/09/21 05:37:33;;;;;;;19.23;5.35;;;;;;;;;;5015324;28;20104;-74
2021/09/21 05:39:59;;;;;;;12.05;5.00;;;;;;;;;;5015471;28;20504;-75
2021/09/21 05:42:25;;;;;;;13.00;5.20;;;;;;;;;;5015957;28;20428;-72
2021/09/21 05:44:52;;;;;;;12.88;5.47;;;;;;;;;;5015032;28;20022;-73
2021/09/21 05:47:18;;;;;;;14.98;5.53;;;;;;;;;;5015786;28;20465;-72
2021/09/21 05:49:44;;;;;;;11.30;4.53;;;;;;;;;;5015806;28;20029;-68
2021/09/21 05:52:11;;;;;;;10.18;4.82;;;;;;;;;;5015466;28;20054;-71
2021/09/21 05:54:37;;;;;;;10.95;4.80;;;;;;;;;;5015125;28;20034;-74
2021/09/21 05:57:03;;;;;;;14.38;5.53;;;;;;;;;;5015336;28;20060;-69
2021/09/21 05:59:29;;;;;;;14.50;5.10;;;;;;;;;;5015070;28;20034;-72
2021/09/21 06:01:55;;;;;;;13.38;5.05;;;;;;;;;;5016194;28;20056;-71
2021/09/21 06:04:22;;;;;;;14.40;4.90;;;;;;;;;;5015880;28;20029;-70
2021/09/21 06:06:48;;;;;;;12.73;5.80;;;;;;;;;;5018854;28;20554;-71
2021/09/21 06:09:14;;;;;;;10.88;5.20;;;;;;;;;;5019696;28;20026;-72
2021/09/21 06:11:40;;;;;;;9.93;5.22;;;;;;;;;;5019497;28;20022;-68
2021/09/21 06:14:06;;;;;;;11.32;4.72;;;;;;;;;;5022182;28;20033;-64
2021/09/21 06:16:32;;;;;;;13.23;5.13;;;;;;;;;;5029324;28;20089;-72
2021/09/21 06:19:06;;;;;;;11.60;5.50;;;;;;;;;;5021094;28;20421;-65
2021/09/21 06:21:32;;;;;;;17.05;5.68;;;;;;;;;;5020104;28;20589;-70
2021/09/21 06:23:58;;;;;;;15.23;5.57;;;;;;;;;;5019993;28;20026;-72
2021/09/21 06:26:25;;;;;;;14.73;5.20;;;;;;;;;;5020425;28;20037;-71
2021/09/21 06:28:51;;;;;;;14.13;5.25;;;;;;;;;;5021725;28;20018;-69
2021/09/21 06:31:17;;;;;;;11.35;5.07;;;;;;;;;;5020330;28;20499;-69
2021/09/21 06:33:43;;;;;;;17.98;5.95;;;;;;;;;;5021089;28;20540;-68
2021/09/21 06:36:12;;;;;;;14.27;5.38;;;;;;;;;;5020945;28;20380;-70
2021/09/21 06:38:38;;;;;;;14.00;6.05;;;;;;;;;;5019649;28;20101;-68
2021/09/21 06:41:05;;;;;;;19.15;5.97;;;;;;;;;;5019984;28;20036;-70
2021/09/21 06:43:31;;;;;;;19.05;5.25;;;;;;;;;;5020331;28;20113;-73
2021/09/21 06:45:57;;;;;;;12.75;5.75;;;;;;;;;;5019949;28;20388;-70
2021/09/21 06:48:26;;;;;;;10.25;5.30;;;;;;;;;;5019444;28;20030;-72
2021/09/21 06:50:53;;;;;;;15.88;5.57;;;;;;;;;;5019730;28;20049;-72
2021/09/21 06:53:19;;;;;;;11.73;4.93;;;;;;;;;;5020310;28;20033;-71
2021/09/21 06:55:45;;;;;;;13.45;5.20;;;;;;;;;;5012881;28;20053;-70
2021/09/21 06:58:11;;;;;;;10.80;5.68;;;;;;;;;;5016778;28;20536;-73
2021/09/21 07:00:42;;;;;;;14.77;5.05;;;;;;;;;;5023807;28;20096;-66
2021/09/21 07:03:13;;;;;;;10.93;5.32;;;;;;;;;;5021496;28;20085;-68
2021/09/21 07:05:39;;;;;;;14.27;5.38;;;;;;;;;;5019313;28;20022;-69
2021/09/21 07:08:05;;;;;;;16.52;5.40;;;;;;;;;;5020705;28;20473;-71
2021/09/21 07:10:31;;;;;;;16.15;5.18;;;;;;;;;;5017899;28;20109;-73
2021/09/21 07:12:57;;;;;;;11.30;4.90;;;;;;;;;;5012759;28;20521;-71
2021/09/21 07:15:24;;;;;;;13.18;5.05;;;;;;;;;;5016318;28;20038;-71
2021/09/21 07:17:51;;;;;;;10.55;5.38;;;;;;;;;;5017135;28;20086;-74
2021/09/21 07:20:17;;;;;;;13.20;5.68;;;;;;;;;;5015406;28;20076;-71
2021/09/21 07:22:43;;;;;;;11.13;5.70;;;;;;;;;;5017353;28;20059;-70
2021/09/21 07:25:10;;;;;;;12.90;6.32;;;;;;;;;;5018375;28;20030;-73
2021/09/21 07:27:36;;;;;;;17.17;6.63;;;;;;;;;;5020477;28;20049;-72
2021/09/21 07:30:06;;;;;;;11.73;5.07;;;;;;;;;;5008623;28;20019;-66
2021/09/21 07:32:33;;;;;;;10.90;4.88;;;;;;;;;;4998950;28;20029;-73
2021/09/21 07:35:00;;;;;;;13.13;5.43;;;;;;;;;;4997308;28;20030;-73
2021/09/21 07:37:26;;;;;;;16.13;5.45;;;;;;;;;;4996604;28;20057;-71
2021/09/21 07:39:52;;;;;;;13.88;5.28;;;;;;;;;;4998748;28;20026;-72
2021/09/21 07:42:19;;;;;;;10.48;5.07;;;;;;;;;;4997923;28;20034;-72
2021/09/21 07:44:45;;;;;;;13.98;5.63;;;;;;;;;;4999430;28;20240;-70
2021/09/21 07:47:12;;;;;;;9.13;4.53;;;;;;;;;;4997239;28;20461;-69
2021/09/21 07:49:38;;;;;;;12.23;5.68;;;;;;;;;;5000125;28;20065;-72
2021/09/21 07:52:04;;;;;;;14.35;5.32;;;;;;;;;;4998226;28;20033;-73
2021/09/21 07:54:39;;;;;;;18.92;5.00;;;;;;;;;;5001874;28;20078;-67
2021/09/21 07:57:05;;;;;;;19.48;6.05;;;;;;;;;;5005162;28;20026;-65
2021/09/21 07:59:32;;;;;;;9.38;5.95;;;;;;;;;;5004083;28;20030;-65
2021/09/21 08:01:58;;;;;;;15.23;5.22;;;;;;;;;;5001258;28;20037;-69
2021/09/21 08:04:24;;;;;;;9.27;4.85;;;;;;;;;;5000689;28;20478;-68
2021/09/21 08:06:50;;;;;;;11.30;5.63;;;;;;;;;;5000546;28;20429;-71
2021/09/21 08:09:16;;;;;;;14.18;5.15;;;;;;;;;;4999218;28;20098;-73
2021/09/21 08:11:43;;;;;;;8.35;4.85;;;;;;;;;;4996199;28;20057;-71
2021/09/21 08:14:09;;;;;;;8.38;4.35;;;;;;;;;;4994896;28;20030;-70
2021/09/21 08:16:36;;;;;;;10.77;5.63;;;;;;;;;;4993356;28;20034;-73
2021/09/21 08:19:03;;;;;;;10.93;5.45;;;;;;;;;;4994997;28;20105;-75
2021/09/21 08:21:29;;;;;;;11.65;5.43;;;;;;;;;;4994814;28;20077;-67
2021/09/21 08:23:55;;;;;;;7.30;5.00;;;;;;;;;;4994103;28;20026;-72
2021/09/21 08:26:21;;;;;;;13.23;5.25;;;;;;;;;;4996886;28;20026;-71
2021/09/21 08:28:48;;;;;;;12.10;5.00;;;;;;;;;;4993640;28;20030;-68
2021/09/21 08:31:14;;;;;;;10.75;4.68;;;;;;;;;;4996943;28;20034;-71
2021/09/21 08:33:40;;;;;;;8.68;4.60;;;;;;;;;;4995679;28;20037;-67
2021/09/21 08:36:06;;;;;;;7.28;6.00;;;;;;;;;;5001791;28;20033;-71
2021/09/21 08:38:33;;;;;;;7.35;4.32;;;;;;;;;;5000347;28;20078;-73
2021/09/21 08:40:59;;;;;;;8.73;4.72;;;;;;;;;;5001182;28;20050;-67
2021/09/21 08:43:25;;;;;;;9.75;4.65;;;;;;;;;;4996601;28;20042;-73
2021/09/21 08:45:51;;;;;;;10.55;4.40;;;;;;;;;;4992534;28;20033;-72
2021/09/21 08:48:18;;;;;;;9.88;5.22;;;;;;;;;;4992601;28;20026;-71
2021/09/21 08:50:44;;;;;;;12.18;4.60;;;;;;;;;;4992122;28;20042;-68
2021/09/21 08:53:10;;;;;;;10.77;5.53;;;;;;;;;;4993310;28;20043;-73
2021/09/21 08:55:36;;;;;;;9.52;4.10;;;;;;;;;;4992184;28;20140;-71
2021/09/21 08:58:02;;;;;;;9.55;3.72;;;;;;;;;;4993448;28;20022;-72
2021/09/21 09:00:29;;;;;;;5.90;3.83;;;;;;;;;;4996931;28;20050;-69
2021/09/21 09:03:05;;;;;;;7.55;4.13;;;;;;;;;;4999868;28;20030;-70
2021/09/21 09:06:01;;;;;;;7.90;3.67;;;;;;;;;;4997003;28;20049;-73
2021/09/21 09:08:31;;;;;;;7.47;4.15;;;;;;;;;;4984610;28;20445;-74
2021/09/21 09:11:16;;;;;;;6.72;3.83;;;;;;;;;;4997529;28;20030;-69
2021/09/21 09:13:43;;;;;;;6.90;3.50;;;;;;;;;;4998500;28;20030;-72
2021/09/21 09:16:14;;;;;;;7.63;3.97;;;;;;;;;;4995420;28;20072;-65
2021/09/21 09:18:46;;;;;;;10.68;4.43;;;;;;;;;;4995964;28;20493;-68
2021/09/21 09:21:14;;;;;;;7.65;3.88;;;;;;;;;;4997224;28;20026;-71
2021/09/21 09:23:45;;;;;;;8.40;3.50;;;;;;;;;;4996340;28;20427;-73
2021/09/21 09:26:11;;;;;;;6.57;4.07;;;;;;;;;;4994635;28;20043;-74
2021/09/21 09:28:37;;;;;;;7.43;4.25;;;;;;;;;;4993920;28;20074;-71
2021/09/21 09:31:03;;;;;;;10.30;3.83;;;;;;;;;;4992140;28;20034;-73
2021/09/21 09:33:32;;;;;;;9.13;3.88;;;;;;;;;;4991366;28;20084;-69
2021/09/21 09:36:00;;;;;;;10.38;4.40;;;;;;;;;;4991220;28;20061;-71
2021/09/21 09:38:26;;;;;;;8.85;4.20;;;;;;;;;;4992492;28;20034;-74
2021/09/21 09:40:54;;;;;;;9.43;3.55;;;;;;;;;;4996816;28;20030;-71
2021/09/21 09:43:22;;;;;;;6.15;3.20;;;;;;;;;;4996972;28;20032;-72
2021/09/21 09:45:49;;;;;;;4.88;3.47;;;;;;;;;;4999188;28;20041;-72
2021/09/21 09:48:17;;;;;;;8.73;3.47;;;;;;;;;;4999867;28;20030;-71
2021/09/21 09:50:44;;;;;;;10.65;3.45;;;;;;;;;;5002793;28;20041;-66
2021/09/21 09:53:10;;;;;;;9.15;3.70;;;;;;;;;;5002481;28;20037;-72
2021/09/21 09:55:37;;;;;;;7.43;3.10;;;;;;;;;;4998209;28;20037;-72
2021/09/21 09:58:06;;;;;;;6.25;3.08;;;;;;;;;;4998249;28;20022;-73
2021/09/21 10:00:32;;;;;;;5.50;2.90;;;;;;;;;;5017714;28;20056;-73
2021/09/21 10:03:00;;;;;;;4.55;2.83;;;;;;;;;;5021401;28;20030;-68
2021/09/21 10:05:26;;;;;;;4.55;2.95;;;;;;;;;;5018397;28;20038;-71
2021/09/21 10:07:56;;;;;;;9.43;3.53;;;;;;;;;;5015988;28;20034;-72
2021/09/21 10:10:22;;;;;;;5.53;2.95;;;;;;;;;;5017001;28;20022;-69
2021/09/21 10:12:51;;;;;;;3.97;2.47;;;;;;;;;;5016992;28;20053;-71
2021/09/21 10:15:17;;;;;;;3.53;2.40;;;;;;;;;;5018381;28;20030;-75
2021/09/21 10:17:53;;;;;;;7.45;2.22;;;;;;;;;;5015781;28;20030;-72
2021/09/21 10:20:19;;;;;;;3.40;1.80;;;;;;;;;;5016994;28;20112;-73
2021/09/21 10:22:51;;;;;;;2.78;1.65;;;;;;;;;;5016965;28;20037;-73
2021/09/21 10:25:18;;;;;;;1.90;1.70;;;;;;;;;;5017866;28;20053;-71
2021/09/21 10:27:44;;;;;;;5.90;1.70;;;;;;;;;;5016573;28;20389;-65
2021/09/21 10:30:11;;;;;;;1.95;1.48;;;;;;;;;;5016250;28;20030;-73
2021/09/21 10:32:44;;;;;;;2.72;1.30;;;;;;;;;;5017284;28;20771;-73
2021/09/21 10:35:12;;;;;;;3.72;1.35;;;;;;;;;;5016509;28;20037;-71
2021/09/21 10:37:38;;;;;;;1.70;1.20;;;;;;;;;;5016202;28;20033;-69
2021/09/21 10:40:05;;;;;;;1.20;1.20;;;;;;;;;;5014978;28;20085;-74
2021/09/21 10:42:31;;;;;;;1.38;1.27;;;;;;;;;;5015206;28;20104;-71
2021/09/21 10:44:59;;;;;;;1.98;1.17;;;;;;;;;;5017328;28;20576;-68
2021/09/21 10:47:27;;;;;;;1.45;1.35;;;;;;;;;;5016771;28;20084;-71
2021/09/21 10:49:53;;;;;;;1.40;1.30;;;;;;;;;;5015235;28;20034;-73
2021/09/21 10:52:25;;;;;;;3.13;1.50;;;;;;;;;;5015107;28;20037;-72
2021/09/21 10:54:52;;;;;;;5.03;1.70;;;;;;;;;;5016596;28;20030;-74
2021/09/21 10:57:27;;;;;;;2.53;1.65;;;;;;;;;;5020339;28;20033;-69
2021/09/21 10:59:53;;;;;;;5.47;2.00;;;;;;;;;;5016002;28;20142;-71
2021/09/21 11:02:20;;;;;;;2.55;1.80;;;;;;;;;;5016217;28;20778;-74
2021/09/21 11:04:46;;;;;;;3.05;1.90;;;;;;;;;;5014972;28;20117;-74
2021/09/21 11:07:16;;;;;;;2.55;2.05;;;;;;;;;;5012251;28;20030;-73
2021/09/21 11:09:42;;;;;;;3.58;2.22;;;;;;;;;;5015146;28;20022;-74
2021/09/21 11:12:12;;;;;;;2.53;2.28;;;;;;;;;;5015061;28;20030;-72
2021/09/21 11:14:42;;;;;;;4.15;2.00;;;;;;;;;;5015791;28;20033;-71
2021/09/21 11:17:11;;;;;;;6.97;2.13;;;;;;;;;;5015777;28;20076;-67
2021/09/21 11:19:38;;;;;;;3.63;2.00;;;;;;;;;;5017347;28;20393;-72
2021/09/21 11:22:09;;;;;;;7.22;2.10;;;;;;;;;;5015785;28;20515;-72
2021/09/21 11:24:36;;;;;;;11.07;2.10;;;;;;;;;;5012506;28;20042;-73
2021/09/21 11:27:04;;;;;;;3.80;1.92;;;;;;;;;;5014771;28;20481;-72
2021/09/21 11:29:31;;;;;;;3.10;2.33;;;;;;;;;;5015404;28;20026;-72
2021/09/21 11:31:58;;;;;;;7.80;2.15;;;;;;;;;;5016287;28;20062;-72
2021/09/21 11:34:27;;;;;;;3.42;2.35;;;;;;;;;;5013364;28;20034;-71
2021/09/21 11:36:54;;;;;;;3.63;1.95;;;;;;;;;;5013428;28;20116;-72
2021/09/21 11:39:23;;;;;;;3.13;1.90;;;;;;;;;;5018004;28;20041;-72
2021/09/21 11:41:53;;;;;;;2.83;2.10;;;;;;;;;;5018753;28;20036;-68
2021/09/21 11:44:19;;;;;;;2.67;2.10;;;;;;;;;;5018370;28;20030;-69
2021/09/21 11:46:45;;;;;;;2.45;2.00;;;;;;;;;;5015890;28;20427;-71
2021/09/21 11:49:11;;;;;;;3.30;2.20;;;;;;;;;;5017858;28;20385;-72
2021/09/21 11:51:41;;;;;;;2.70;2.20;;;;;;;;;;5016675;28;20026;-71
2021/09/21 11:54:07;;;;;;;7.70;2.42;;;;;;;;;;5016371;28;20030;-68
2021/09/21 11:56:40;;;;;;;5.43;2.88;;;;;;;;;;5019357;28;20435;-72
2021/09/21 11:59:06;;;;;;;5.03;3.20;;;;;;;;;;5019008;28;20018;-71
2021/09/21 12:01:32;;;;;;;3.03;2.25;;;;;;;;;;5016271;28;20046;-71
2021/09/21 12:03:59;;;;;;;3.63;3.00;;;;;;;;;;5014863;28;20125;-71
2021/09/21 12:06:35;;;;;;;3.42;2.50;;;;;;;;;;5009691;28;20034;-71
2021/09/21 12:09:02;;;;;;;4.07;2.40;;;;;;;;;;4999357;28;20073;-73
2021/09/21 12:11:29;;;;;;;3.85;2.33;;;;;;;;;;5001019;28;20030;-71
2021/09/21 12:13:57;;;;;;;2.92;2.60;;;;;;;;;;5001572;28;20370;-70
2021/09/21 12:16:23;;;;;;;3.47;2.30;;;;;;;;;;4998680;28;20057;-75
2021/09/21 12:18:50;;;;;;;4.47;2.60;;;;;;;;;;4994868;28;20085;-69
2021/09/21 12:21:17;;;;;;;3.30;2.60;;;;;;;;;;4995882;28;20033;-74
2021/09/21 12:23:44;;;;;;;3.83;2.90;;;;;;;;;;4995482;28;20420;-73
2021/09/21 12:26:14;;;;;;;3.63;2.42;;;;;;;;;;4995782;28;20041;-71
2021/09/21 12:28:41;;;;;;;4.20;3.22;;;;;;;;;;4994761;28;20030;-70
2021/09/21 12:31:17;;;;;;;3.60;2.75;;;;;;;;;;4995439;28;20386;-74
2021/09/21 12:33:43;;;;;;;4.25;2.83;;;;;;;;;;4993844;28;20037;-73
2021/09/21 12:36:28;;;;;;;6.22;3.65;;;;;;;;;;4992410;28;20533;-73
2021/09/21 12:39:05;;;;;;;5.67;3.20;;;;;;;;;;4995006;28;20034;-74
2021/09/21 12:41:33;;;;;;;7.38;3.53;;;;;;;;;;4996145;28;20280;-74
2021/09/21 12:44:05;;;;;;;5.30;3.33;;;;;;;;;;4994235;28;20516;-73
2021/09/21 12:46:31;;;;;;;5.10;3.30;;;;;;;;;;4993214;28;20034;-73
2021/09/21 12:49:01;;;;;;;5.25;3.38;;;;;;;;;;4993254;28;20038;-73
2021/09/21 12:51:31;;;;;;;4.28;3.15;;;;;;;;;;4993800;28;20026;-71
2021/09/21 12:54:01;;;;;;;3.75;3.22;;;;;;;;;;4993712;28;20040;-73
2021/09/21 12:56:27;;;;;;;5.15;3.40;;;;;;;;;;4992601;28;20026;-72
2021/09/21 12:59:02;;;;;;;3.97;3.22;;;;;;;;;;4994235;28;20478;-74
2021/09/21 13:01:28;;;;;;;3.85;2.80;;;;;;;;;;4992287;28;20042;-72
2021/09/21 13:03:54;;;;;;;7.72;3.00;;;;;;;;;;5006519;28;20085;-74
2021/09/21 13:06:21;;;;;;;5.78;3.17;;;;;;;;;;5003436;28;20081;-74
2021/09/21 13:08:49;;;;;;;5.80;4.40;;;;;;;;;;4991382;28;20788;-73
2021/09/21 13:11:15;;;;;;;7.22;3.15;;;;;;;;;;4993277;28;20019;-72
2021/09/21 13:13:41;;;;;;;5.20;3.13;;;;;;;;;;4995429;28;20122;-71
2021/09/21 13:16:08;;;;;;;7.13;3.50;;;;;;;;;;4995196;28;20034;-74
2021/09/21 13:18:34;;;;;;;5.25;3.50;;;;;;;;;;4992254;28;20049;-74
2021/09/21 13:21:00;;;;;;;5.35;3.10;;;;;;;;;;4993381;28;20101;-71
2021/09/21 13:23:26;;;;;;;6.07;3.72;;;;;;;;;;4997372;28;20026;-71
2021/09/21 13:25:53;;;;;;;6.95;3.35;;;;;;;;;;4997565;28;20034;-74
2021/09/21 13:28:19;;;;;;;6.72;3.78;;;;;;;;;;4998475;28;20034;-72
2021/09/21 13:30:49;;;;;;;5.68;3.33;;;;;;;;;;5000115;28;20190;-66
2021/09/21 13:33:16;;;;;;;5.28;3.58;;;;;;;;;;4995643;28;20036;-70
2021/09/21 13:35:42;;;;;;;4.68;2.95;;;;;;;;;;4997478;28;20030;-74
2021/09/21 13:38:08;;;;;;;4.30;3.03;;;;;;;;;;4996176;28;20494;-74
2021/09/21 13:40:35;;;;;;;4.88;3.13;;;;;;;;;;4998436;28;20019;-66
2021/09/21 13:43:01;;;;;;;6.45;3.50;;;;;;;;;;4999411;28;20033;-71
2021/09/21 13:45:27;;;;;;;5.32;3.70;;;;;;;;;;5002813;28;20026;-71
2021/09/21 13:47:55;;;;;;;4.43;3.63;;;;;;;;;;5000836;28;20085;-69
2021/09/21 13:50:21;;;;;;;5.38;3.45;;;;;;;;;;5002429;28;20018;-71
2021/09/21 13:52:48;;;;;;;5.75;3.40;;;;;;;;;;4995793;28;20110;-74
2021/09/21 13:55:14;;;;;;;9.18;4.15;;;;;;;;;;4992383;28;20041;-71
2021/09/21 13:57:41;;;;;;;4.32;3.20;;;;;;;;;;4990816;28;20397;-73
2021/09/21 14:00:10;;;;;;;5.00;3.28;;;;;;;;;;4991139;28;20050;-71
2021/09/21 14:02:37;;;;;;;5.03;3.28;;;;;;;;;;4990744;28;20058;-75
2021/09/21 14:05:03;;;;;;;4.25;3.20;;;;;;;;;;4990292;28;20034;-73
2021/09/21 14:07:29;;;;;;;5.50;2.92;;;;;;;;;;5007066;28;20026;-74
2021/09/21 14:09:57;;;;;;;5.97;3.25;;;;;;;;;;5009254;28;20037;-74
2021/09/21 14:12:23;;;;;;;9.77;3.70;;;;;;;;;;5009378;28;20497;-73
2021/09/21 14:14:49;;;;;;;4.75;3.10;;;;;;;;;;5009290;28;20072;-73
2021/09/21 14:17:16;;;;;;;6.05;3.35;;;;;;;;;;5009508;28;20025;-74
2021/09/21 14:19:42;;;;;;;5.03;3.10;;;;;;;;;;5009353;28;20038;-74
2021/09/21 14:22:08;;;;;;;5.13;3.08;;;;;;;;;;5009768;28;20034;-74
2021/09/21 14:24:34;;;;;;;5.65;3.45;;;;;;;;;;5010121;28;20036;-73
2021/09/21 14:27:01;;;;;;;7.88;3.15;;;;;;;;;;5010833;28;20022;-74
2021/09/21 14:29:28;;;;;;;5.05;3.20;;;;;;;;;;5014934;28;20076;-74
2021/09/21 14:31:54;;;;;;;9.40;3.03;;;;;;;;;;5018116;28;20121;-71
2021/09/21 14:34:20;;;;;;;8.15;3.10;;;;;;;;;;5023367;28;20026;-71
2021/09/21 14:36:46;;;;;;;4.78;3.03;;;;;;;;;;5021280;28;20034;-68
2021/09/21 14:39:13;;;;;;;8.93;3.38;;;;;;;;;;5018180;28;20026;-74
2021/09/21 14:41:39;;;;;;;4.20;2.72;;;;;;;;;;5022283;28;20078;-67
2021/09/21 14:44:05;;;;;;;3.65;2.90;;;;;;;;;;5024670;28;20060;-67